createdAt,value
2022-12-15T00:00:20.535Z,96973.72
2022-12-15T00:05:41.067Z,96967.28
2022-12-15T00:11:01.171Z,96965.69
2022-12-15T00:16:21.838Z,96964.97
2022-12-15T00:21:42.125Z,96956.31
2022-12-15T00:27:02.778Z,96959.81
2022-12-15T00:32:24.698Z,96954.66
2022-12-15T00:37:45.296Z,96957.03
2022-12-15T00:42:47.752Z,96964.75
2022-12-15T00:47:51.424Z,96972.09
2022-12-15T00:53:11.847Z,96978.91
2022-12-15T00:58:32.025Z,96973.34
2022-12-15T01:03:52.706Z,96975.44
2022-12-15T01:09:13.719Z,96979.81
2022-12-15T01:14:34.042Z,96994.38
2022-12-15T01:19:54.485Z,97004.91
2022-12-15T01:24:56.280Z,97013.50
2022-12-15T01:29:58.215Z,97011.78
2022-12-15T01:35:00.088Z,97015.25
2022-12-15T01:40:20.582Z,97020.50
2022-12-15T01:45:31.597Z,97029.94
2022-12-15T01:50:39.843Z,97039.50
2022-12-15T01:55:44.457Z,97044.28
2022-12-15T02:00:49.915Z,97044.63
2022-12-15T02:05:53.347Z,97046.22
2022-12-15T02:11:22.261Z,97047.78
2022-12-15T02:16:38.681Z,97060.16
2022-12-15T02:22:09.531Z,97064.91
2022-12-15T02:27:59.285Z,97061.09
2022-12-15T02:33:24.124Z,97065.91
2022-12-15T02:38:35.133Z,97065.44
2022-12-15T02:43:39.066Z,97078.66
2022-12-15T02:48:56.144Z,97093.34
2022-12-15T02:54:26.498Z,97091.72
2022-12-15T02:59:41.137Z,97094.38
2022-12-15T03:04:43.545Z,97097.59
2022-12-15T03:09:45.357Z,97110.81
2022-12-15T03:14:47.189Z,97108.66
2022-12-15T03:19:49.644Z,97100.63
2022-12-15T03:24:51.891Z,97128.13
2022-12-15T03:29:53.812Z,97128.59
2022-12-15T03:34:55.642Z,97139.66
2022-12-15T03:39:57.494Z,97141.09
2022-12-15T03:44:59.281Z,97140.41
2022-12-15T03:50:01.118Z,97137.13
2022-12-15T03:55:04.461Z,97146.88
2022-12-15T04:00:07.247Z,97147.69
2022-12-15T04:05:17.840Z,97153.56
2022-12-15T04:10:19.754Z,97156.72
2022-12-15T04:15:21.782Z,97175.19
2022-12-15T04:20:23.593Z,97185.50
2022-12-15T04:25:45.238Z,97186.81
2022-12-15T04:31:13.470Z,97201.31
2022-12-15T04:36:34.810Z,97204.81
2022-12-15T04:41:55.566Z,97209.88
2022-12-15T04:47:15.949Z,97218.88
2022-12-15T04:52:36.625Z,97233.44
2022-12-15T04:57:57.184Z,97222.28
2022-12-15T05:03:24.056Z,97226.56
2022-12-15T05:08:44.806Z,97244.41
2022-12-15T05:14:05.421Z,97238.63
2022-12-15T05:19:26.045Z,97247.38
2022-12-15T05:24:46.530Z,97256.69
2022-12-15T05:30:07.143Z,97265.91
2022-12-15T05:35:09.001Z,97272.75
2022-12-15T05:40:11.199Z,97280.16
2022-12-15T05:45:13.050Z,97288.00
2022-12-15T05:50:14.961Z,97294.06
2022-12-15T05:55:17.595Z,97298.78
2022-12-15T06:00:20.648Z,97299.06
2022-12-15T06:05:22.811Z,97317.94
2022-12-15T06:10:24.669Z,97316.59
2022-12-15T06:15:26.495Z,97322.44
2022-12-15T06:20:28.364Z,97323.56
2022-12-15T06:25:30.188Z,97329.91
2022-12-15T06:30:32.280Z,97337.69
2022-12-15T06:35:38.691Z,97346.94
2022-12-15T06:40:41.162Z,97347.44
2022-12-15T06:45:49.719Z,97366.44
2022-12-15T06:50:52.515Z,97365.47
2022-12-15T06:56:00.624Z,97364.47
2022-12-15T07:01:08.110Z,97358.41
2022-12-15T07:06:12.846Z,97373.44
2022-12-15T07:11:14.747Z,97386.16
2022-12-15T07:16:16.650Z,97396.47
2022-12-15T07:21:18.641Z,97395.19
2022-12-15T07:26:20.516Z,97403.88
2022-12-15T07:31:23.041Z,97415.22
2022-12-15T07:36:25.333Z,97423.59
2022-12-15T07:41:27.787Z,97429.13
2022-12-15T07:46:30.153Z,97436.75
2022-12-15T07:51:32.052Z,97439.41
2022-12-15T07:56:38.994Z,97443.69
2022-12-15T08:01:41.866Z,97453.63
2022-12-15T08:06:44.168Z,97458.78
2022-12-15T08:11:46.124Z,97449.72
2022-12-15T08:16:48.247Z,97453.84
2022-12-15T08:21:50.710Z,97456.19
2022-12-15T08:26:53.113Z,97461.03
2022-12-15T08:31:55.091Z,97464.53
2022-12-15T08:36:57.023Z,97476.72
2022-12-15T08:41:58.967Z,97480.22
2022-12-15T08:47:00.957Z,97477.91
2022-12-15T08:52:02.897Z,97480.03
2022-12-15T08:57:05.510Z,97467.66
2022-12-15T09:02:09.865Z,97471.25
2022-12-15T09:07:11.880Z,97474.47
2022-12-15T09:12:14.223Z,97484.81
2022-12-15T09:17:16.226Z,97478.25
2022-12-15T09:22:18.177Z,97489.28
2022-12-15T09:27:20.462Z,97483.63
2022-12-15T09:32:22.639Z,97496.63
2022-12-15T09:37:24.456Z,97493.69
2022-12-15T09:42:28.563Z,97489.16
2022-12-15T09:47:51.520Z,97496.41
2022-12-15T09:52:58.375Z,97476.22
2022-12-15T09:58:11.089Z,97482.16
2022-12-15T10:03:28.811Z,97493.81
2022-12-15T10:08:37.107Z,97502.50
2022-12-15T10:13:47.690Z,97510.34
2022-12-15T10:19:01.041Z,97512.63
2022-12-15T10:24:44.351Z,97515.34
2022-12-15T10:29:50.817Z,97515.81
2022-12-15T10:34:52.962Z,97531.69
2022-12-15T10:39:54.846Z,97533.09
2022-12-15T10:44:58.431Z,97537.63
2022-12-15T10:50:24.735Z,97533.06
2022-12-15T10:55:37.194Z,97537.22
2022-12-15T11:00:39.208Z,97531.75
2022-12-15T11:05:52.688Z,97530.44
2022-12-15T11:11:17.944Z,97539.00
2022-12-15T11:16:20.176Z,97535.91
2022-12-15T11:21:27.918Z,97531.28
2022-12-15T11:26:49.021Z,97528.66
2022-12-15T11:31:53.131Z,97540.44
2022-12-15T11:37:13.472Z,97541.09
2022-12-15T11:42:34.164Z,97545.47
2022-12-15T11:47:51.061Z,97549.50
2022-12-15T11:53:11.553Z,97541.31
2022-12-15T11:58:25.479Z,97542.16
2022-12-15T12:03:51.920Z,97533.66
2022-12-15T12:09:11.215Z,97535.13
2022-12-15T12:14:27.839Z,97523.88
2022-12-15T12:19:43.172Z,97522.19
2022-12-15T12:24:51.191Z,97518.63
2022-12-15T12:30:02.503Z,97520.28
2022-12-15T12:35:31.433Z,97515.59
2022-12-15T12:40:40.821Z,97522.34
2022-12-15T12:45:56.095Z,97517.19
2022-12-15T12:51:19.321Z,97512.53
2022-12-15T12:56:48.730Z,97516.34
2022-12-15T13:01:52.638Z,97513.28
2022-12-15T13:07:12.784Z,97507.78
2022-12-15T13:12:50.819Z,97495.69
2022-12-15T13:17:58.548Z,97506.53
2022-12-15T13:23:19.659Z,97504.25
2022-12-15T13:28:36.597Z,97506.88
2022-12-15T13:33:50.444Z,97510.38
2022-12-15T13:38:54.955Z,97510.13
2022-12-15T13:43:58.662Z,97525.31
2022-12-15T13:49:12.792Z,97527.22
2022-12-15T13:54:15.606Z,97536.91
2022-12-15T13:59:30.641Z,97530.38
2022-12-15T14:04:32.701Z,97555.19
2022-12-15T14:09:38.564Z,97550.72
2022-12-15T14:14:47.301Z,97554.91
2022-12-15T14:19:51.480Z,97557.00
2022-12-15T14:25:13.630Z,97542.91
2022-12-15T14:30:32.943Z,97540.88
2022-12-15T14:35:43.399Z,97541.13
2022-12-15T14:40:46.887Z,97541.38
2022-12-15T14:45:56.779Z,97559.78
2022-12-15T14:51:01.675Z,97555.28
2022-12-15T14:56:25.744Z,97545.69
2022-12-15T15:01:33.639Z,97546.09
2022-12-15T15:06:40.315Z,97537.38
2022-12-15T15:11:43.101Z,97526.50
2022-12-15T15:16:45.549Z,97536.47
2022-12-15T15:21:48.069Z,97539.03
2022-12-15T15:26:50.040Z,97544.50
2022-12-15T15:31:53.411Z,97538.38
2022-12-15T15:36:55.203Z,97537.66
2022-12-15T15:41:56.981Z,97540.78
2022-12-15T15:46:58.848Z,97546.41
2022-12-15T15:52:00.807Z,97543.44
2022-12-15T15:57:02.748Z,97540.84
2022-12-15T16:02:04.683Z,97554.47
2022-12-15T16:07:15.486Z,97553.47
2022-12-15T16:12:36.030Z,97548.91
2022-12-15T16:17:37.887Z,97565.34
2022-12-15T16:22:41.998Z,97565.28
2022-12-15T16:27:43.809Z,97581.47
2022-12-15T16:32:45.915Z,97576.44
2022-12-15T16:37:48.260Z,97567.63
2022-12-15T16:43:01.370Z,97583.75
2022-12-15T16:48:03.310Z,97595.50
2022-12-15T16:53:07.506Z,97593.34
2022-12-15T16:58:15.797Z,97583.22
2022-12-15T17:03:20.035Z,97592.50
2022-12-15T17:08:26.453Z,97586.41
2022-12-15T17:13:45.332Z,97590.50
2022-12-15T17:18:48.124Z,97587.19
2022-12-15T17:23:53.073Z,97594.06
2022-12-15T17:28:56.212Z,97579.78
2022-12-15T17:33:58.475Z,97580.63
2022-12-15T17:39:01.508Z,97568.19
2022-12-15T17:44:32.230Z,97581.97
2022-12-15T17:49:27.742Z,97583.78
2022-12-15T17:54:33.940Z,97580.09
2022-12-15T17:59:35.784Z,97579.22
2022-12-15T18:04:37.618Z,97568.78
2022-12-15T18:09:39.513Z,97550.47
2022-12-15T18:14:41.295Z,97544.59
2022-12-15T18:19:43.361Z,97550.38
2022-12-15T18:24:46.224Z,97550.03
2022-12-15T18:29:48.102Z,97560.41
2022-12-15T18:34:50.641Z,97579.00
2022-12-15T18:39:52.876Z,97584.06
2022-12-15T18:44:56.701Z,97569.41
2022-12-15T18:49:58.549Z,97575.25
2022-12-15T18:55:00.454Z,97567.78
2022-12-15T19:00:27.940Z,97561.66
2022-12-15T19:05:30.081Z,97569.78
2022-12-15T19:10:34.665Z,97567.16
2022-12-15T19:15:36.479Z,97564.06
2022-12-15T19:20:57.083Z,97565.19
2022-12-15T19:25:59.282Z,97555.66
2022-12-15T19:31:01.793Z,97553.00
2022-12-15T19:36:04.311Z,97551.13
2022-12-15T19:41:06.571Z,97569.38
2022-12-15T19:46:20.613Z,97563.34
2022-12-15T19:51:24.374Z,97554.66
2022-12-15T19:56:27.018Z,97550.38
2022-12-15T20:01:29.183Z,97557.03
2022-12-15T20:06:32.013Z,97543.38
2022-12-15T20:11:34.601Z,97538.28
2022-12-15T20:16:37.070Z,97535.13
2022-12-15T20:21:41.444Z,97535.41
2022-12-15T20:26:45.851Z,97544.16
2022-12-15T20:31:47.986Z,97537.28
2022-12-15T20:36:50.927Z,97519.72
2022-12-15T20:41:54.183Z,97517.56
2022-12-15T20:46:56.425Z,97507.69
2022-12-15T20:51:58.452Z,97503.06
2022-12-15T20:57:00.625Z,97487.78
2022-12-15T21:02:02.647Z,97487.16
2022-12-15T21:07:06.174Z,97486.03
2022-12-15T21:12:21.218Z,97486.69
2022-12-15T21:17:28.747Z,97478.50
2022-12-15T21:22:30.648Z,97470.25
2022-12-15T21:27:32.486Z,97487.03
2022-12-15T21:32:34.291Z,97483.44
2022-12-15T21:37:36.666Z,97469.59
2022-12-15T21:42:38.881Z,97481.50
2022-12-15T21:47:59.585Z,97463.00
2022-12-15T21:53:02.155Z,97462.50
2022-12-15T21:58:17.551Z,97467.72
2022-12-15T22:03:19.492Z,97460.63
2022-12-15T22:08:22.450Z,97466.63
2022-12-15T22:13:24.358Z,97479.81
2022-12-15T22:18:26.186Z,97472.81
2022-12-15T22:23:28.008Z,97486.91
2022-12-15T22:28:30.275Z,97488.50
2022-12-15T22:33:32.701Z,97493.81
2022-12-15T22:38:34.970Z,97493.22
2022-12-15T22:43:39.528Z,97497.31
2022-12-15T22:48:43.709Z,97497.81
2022-12-15T22:53:46.006Z,97499.88
2022-12-15T22:58:49.523Z,97493.56
2022-12-15T23:03:52.409Z,97507.34
2022-12-15T23:08:56.296Z,97506.28
2022-12-15T23:13:58.340Z,97507.78
2022-12-15T23:19:01.763Z,97502.16
2022-12-15T23:24:03.711Z,97488.88
2022-12-15T23:29:05.548Z,97462.88
2022-12-15T23:34:08.697Z,97463.59
2022-12-15T23:39:10.547Z,97468.84
2022-12-15T23:44:12.521Z,97471.56
2022-12-15T23:49:14.314Z,97465.19
2022-12-15T23:54:16.093Z,97460.41
2022-12-15T23:59:17.879Z,97461.69
